Time;durP1;ratioP1;P1;durP2;ratioP2;P2;SDS_P1;SDS_P2;PMS_P1;PMS_P2;Temp;Humidity;BMP_temperature;BMP_pressure;BME280_temperature;BME280_humidity;BME280_pressure;Samples;Min_cycle;Max_cycle;Signal;HPM_P1;HPM_P2
2022/04/25 00:02:24;;;;;;;8.68;3.30;;;8.30;99.90;;;;;;5115904;28;20032;-78
2022/04/25 00:04:50;;;;;;;11.82;2.83;;;8.30;99.90;;;;;;5113534;28;20127;-79
2022/04/25 00:07:16;;;;;;;12.60;2.92;;;8.30;99.90;;;;;;5118019;28;20024;-78
2022/04/25 00:09:43;;;;;;;10.13;3.33;;;8.40;99.90;;;;;;5112948;28;20028;-79
2022/04/25 00:12:12;;;;;;;5.50;2.65;;;8.30;99.90;;;;;;5110572;28;20008;-80
2022/04/25 00:14:37;;;;;;;5.20;2.53;;;8.40;99.90;;;;;;5117379;28;20024;-78
2022/04/25 00:17:03;;;;;;;4.35;2.40;;;8.30;99.90;;;;;;5111270;28;20550;-77
2022/04/25 00:19:30;;;;;;;3.03;2.03;;;8.30;99.90;;;;;;5117400;28;20034;-77
2022/04/25 00:21:59;;;;;;;6.50;3.15;;;8.30;99.90;;;;;;5115599;28;20022;-81
2022/04/25 00:24:25;;;;;;;13.57;2.83;;;8.30;99.90;;;;;;5115980;28;20027;-78
2022/04/25 00:26:50;;;;;;;8.63;3.40;;;8.30;99.90;;;;;;5113075;28;20066;-79
2022/04/25 00:29:16;;;;;;;10.77;2.50;;;8.30;99.90;;;;;;5110742;28;20186;-78
2022/04/25 00:31:42;;;;;;;4.72;2.40;;;8.30;99.90;;;;;;5098960;28;20026;-80
2022/04/25 00:34:07;;;;;;;10.68;3.35;;;8.30;99.90;;;;;;5113018;28;20020;-79
2022/04/25 00:36:33;;;;;;;5.72;3.17;;;8.40;99.90;;;;;;5116334;28;20501;-80
2022/04/25 00:38:59;;;;;;;4.93;2.53;;;8.40;99.90;;;;;;5117392;28;20028;-81
2022/04/25 00:41:25;;;;;;;5.00;2.33;;;8.30;99.90;;;;;;5114378;28;20024;-81
2022/04/25 00:43:57;;;;;;;3.85;2.58;;;8.30;99.90;;;;;;5116116;28;20036;-79
2022/04/25 00:46:25;;;;;;;6.95;2.17;;;8.30;99.90;;;;;;5098742;28;20027;-81
2022/04/25 00:48:51;;;;;;;4.15;2.60;;;8.30;99.90;;;;;;5099310;28;20414;-82
2022/04/25 00:51:18;;;;;;;4.47;2.92;;;8.30;99.90;;;;;;5097953;28;20020;-81
2022/04/25 00:53:45;;;;;;;8.68;3.47;;;8.40;99.90;;;;;;5107873;28;20052;-80
2022/04/25 00:56:17;;;;;;;6.97;3.05;;;8.30;99.90;;;;;;5112312;28;20040;-81
2022/04/25 00:58:46;;;;;;;9.63;3.75;;;8.30;99.90;;;;;;5115315;28;20494;-80
2022/04/25 01:01:13;;;;;;;6.72;3.55;;;8.40;99.90;;;;;;5112126;28;20027;-78
2022/04/25 01:03:42;;;;;;;5.45;3.25;;;8.40;99.90;;;;;;5115339;28;20039;-83
2022/04/25 01:06:07;;;;;;;5.10;2.85;;;8.40;99.90;;;;;;5111743;28;20095;-80
2022/04/25 01:08:34;;;;;;;9.27;3.90;;;8.40;99.90;;;;;;5116116;28;20023;-81
2022/04/25 01:11:02;;;;;;;6.28;4.22;;;8.30;99.90;;;;;;5112210;28;20068;-84
2022/04/25 01:13:28;;;;;;;5.43;3.05;;;8.30;99.90;;;;;;5109382;28;20032;-83
2022/04/25 01:15:54;;;;;;;8.45;3.80;;;8.30;99.90;;;;;;5114884;28;20055;-82
2022/04/25 01:18:20;;;;;;;21.85;4.07;;;8.30;99.90;;;;;;5116865;28;20077;-83
2022/04/25 01:20:45;;;;;;;10.90;3.88;;;8.40;99.90;;;;;;5113498;28;20027;-83
2022/04/25 01:28:51;;;;;;;12.55;4.10;;;8.40;99.90;;;;;;5113430;28;19919;-83
2022/04/25 01:31:17;;;;;;;8.10;4.03;;;8.40;99.90;;;;;;5114996;28;20758;-82
2022/04/25 01:33:42;;;;;;;7.05;4.10;;;8.40;99.90;;;;;;5116343;28;20044;-84
2022/04/25 01:36:08;;;;;;;10.25;4.28;;;8.50;99.90;;;;;;5114479;28;20036;-83
2022/04/25 01:38:34;;;;;;;13.07;3.33;;;8.50;99.90;;;;;;5116131;28;20077;-84
2022/04/25 01:40:59;;;;;;;8.82;4.30;;;8.50;99.90;;;;;;5113877;28;20504;-83
2022/04/25 01:43:26;;;;;;;7.13;3.35;;;8.50;99.90;;;;;;5118564;28;20459;-83
2022/04/25 01:45:52;;;;;;;8.38;4.32;;;8.50;99.90;;;;;;5113241;28;20020;-80
2022/04/25 01:48:18;;;;;;;9.90;4.28;;;8.50;99.90;;;;;;5113019;28;20016;-79
2022/04/25 01:50:43;;;;;;;7.53;4.07;;;8.50;99.90;;;;;;5112543;28;20035;-80
2022/04/25 01:53:09;;;;;;;9.90;4.55;;;8.50;99.90;;;;;;5112420;28;20028;-79
2022/04/25 01:55:35;;;;;;;8.25;4.15;;;8.40;99.90;;;;;;5115310;28;20028;-81
2022/04/25 01:58:00;;;;;;;6.97;3.78;;;8.40;99.90;;;;;;5112404;28;20015;-81
2022/04/25 02:00:26;;;;;;;9.45;4.72;;;8.40;99.90;;;;;;5113768;28;20062;-81
2022/04/25 02:02:52;;;;;;;8.50;3.88;;;8.40;99.90;;;;;;5115909;28;20027;-80
2022/04/25 02:05:17;;;;;;;11.38;4.50;;;8.40;99.90;;;;;;5113729;28;20056;-80
2022/04/25 02:07:43;;;;;;;9.05;4.95;;;8.40;99.90;;;;;;5114751;28;20447;-80
2022/04/25 02:10:09;;;;;;;12.60;5.07;;;8.40;99.90;;;;;;5113663;28;20031;-82
2022/04/25 02:12:35;;;;;;;7.80;4.18;;;8.30;99.90;;;;;;5114123;28;20020;-79
2022/04/25 02:15:01;;;;;;;10.63;5.53;;;8.30;99.90;;;;;;5114602;28;20031;-81
2022/04/25 02:17:27;;;;;;;10.32;4.80;;;8.30;99.90;;;;;;5111913;28;20044;-81
2022/04/25 02:19:53;;;;;;;9.02;4.93;;;8.40;99.90;;;;;;5112289;28;20031;-82
2022/04/25 02:22:19;;;;;;;10.75;5.15;;;8.40;99.90;;;;;;5113706;28;20968;-80
2022/04/25 02:24:49;;;;;;;9.45;4.60;;;8.30;99.90;;;;;;5112325;28;20416;-83
2022/04/25 02:27:14;;;;;;;11.07;5.50;;;8.40;99.90;;;;;;5113120;28;20045;-80
2022/04/25 02:29:40;;;;;;;12.38;5.82;;;8.40;99.90;;;;;;5113087;28;20024;-81
2022/04/25 02:32:07;;;;;;;10.98;5.15;;;8.40;99.90;;;;;;5111991;28;20404;-81
2022/04/25 02:34:32;;;;;;;11.23;5.03;;;8.30;99.90;;;;;;5113284;28;20024;-80
2022/04/25 02:36:58;;;;;;;9.73;4.50;;;8.30;99.90;;;;;;5109433;28;20040;-79
2022/04/25 02:39:25;;;;;;;8.88;4.80;;;8.30;99.90;;;;;;5112176;28;20081;-80
2022/04/25 02:41:52;;;;;;;15.27;4.85;;;8.30;99.90;;;;;;5113388;28;20034;-80
2022/04/25 02:44:18;;;;;;;17.52;5.18;;;8.30;99.90;;;;;;5113002;28;20016;-80
2022/04/25 02:46:44;;;;;;;7.55;4.25;;;8.30;99.90;;;;;;5112913;28;20317;-81
2022/04/25 02:49:09;;;;;;;16.63;4.85;;;8.30;99.90;;;;;;5112384;28;20077;-80
2022/04/25 02:51:35;;;;;;;10.77;4.75;;;8.30;99.90;;;;;;5115537;28;20028;-80
2022/04/25 02:54:00;;;;;;;15.00;5.80;;;8.30;99.90;;;;;;5111877;28;20019;-81
2022/04/25 02:56:26;;;;;;;10.57;5.05;;;8.30;99.90;;;;;;5113240;28;20039;-82
2022/04/25 02:58:52;;;;;;;13.40;5.10;;;8.30;99.90;;;;;;5110741;28;20031;-81
2022/04/25 03:01:18;;;;;;;10.15;4.80;;;8.30;99.90;;;;;;5110908;28;20105;-81
2022/04/25 03:03:44;;;;;;;9.85;5.53;;;8.30;99.90;;;;;;5109616;28;20028;-79
2022/04/25 03:06:10;;;;;;;12.32;5.97;;;8.30;99.90;;;;;;5112651;28;20079;-81
2022/04/25 03:08:37;;;;;;;8.73;4.28;;;8.30;99.90;;;;;;5113570;28;20075;-80
2022/04/25 03:11:05;;;;;;;11.57;6.20;;;8.30;99.90;;;;;;5113300;28;20024;-80
2022/04/25 03:13:31;;;;;;;15.55;5.47;;;8.30;99.90;;;;;;5087928;28;20020;-80
2022/04/25 03:15:57;;;;;;;13.82;6.13;;;8.30;99.90;;;;;;5108906;28;20046;-79
2022/04/25 03:18:23;;;;;;;17.70;5.97;;;8.30;99.90;;;;;;5111091;28;20643;-80
2022/04/25 03:20:50;;;;;;;12.98;5.75;;;8.30;99.90;;;;;;5091447;28;20507;-80
2022/04/25 03:23:21;;;;;;;12.15;5.32;;;8.30;99.90;;;;;;5110475;28;20469;-79
2022/04/25 03:25:47;;;;;;;11.23;5.47;;;8.30;99.90;;;;;;5110257;28;20031;-79
2022/04/25 03:28:13;;;;;;;13.00;5.53;;;8.20;99.90;;;;;;5096156;28;20016;-82
2022/04/25 03:30:39;;;;;;;7.97;4.40;;;8.20;99.90;;;;;;5112980;28;20070;-79
2022/04/25 03:33:05;;;;;;;12.50;5.47;;;8.20;99.90;;;;;;5112758;28;20023;-80
2022/04/25 03:35:32;;;;;;;12.20;4.93;;;8.20;99.90;;;;;;5112518;28;20020;-80
2022/04/25 03:37:59;;;;;;;10.02;3.83;;;8.20;99.90;;;;;;5114093;28;20024;-81
2022/04/25 03:40:25;;;;;;;15.32;4.53;;;8.10;99.90;;;;;;5108963;28;20020;-79
2022/04/25 03:42:51;;;;;;;7.38;3.65;;;8.10;99.90;;;;;;5115397;28;20028;-81
2022/04/25 03:45:18;;;;;;;7.05;3.28;;;8.10;99.90;;;;;;5112296;28;20030;-80
2022/04/25 03:47:45;;;;;;;5.07;3.13;;;8.20;99.90;;;;;;5113337;28;20024;-81
2022/04/25 03:50:13;;;;;;;6.55;2.78;;;8.10;99.90;;;;;;5112822;28;20022;-77
2022/04/25 03:52:48;;;;;;;9.40;3.72;;;8.10;99.90;;;;;;5107300;28;20110;-81
2022/04/25 03:58:01;;;;;;;7.80;3.28;;;8.10;99.90;;;;;;5113330;28;20123;-74
2022/04/25 04:00:27;;;;;;;4.05;2.58;;;8.10;99.90;;;;;;5111376;28;20027;-76
2022/04/25 04:02:53;;;;;;;4.97;2.95;;;8.00;99.90;;;;;;5114337;28;20074;-75
2022/04/25 04:05:20;;;;;;;5.55;3.13;;;8.00;99.90;;;;;;5111403;28;20023;-74
2022/04/25 04:07:46;;;;;;;5.07;2.65;;;8.00;99.90;;;;;;5112855;28;20498;-74
2022/04/25 04:10:12;;;;;;;4.72;2.78;;;8.00;99.90;;;;;;5110573;28;20024;-73
2022/04/25 04:12:38;;;;;;;6.28;2.75;;;8.00;99.90;;;;;;5113292;28;20028;-73
2022/04/25 04:15:07;;;;;;;7.05;3.10;;;7.90;99.90;;;;;;5111520;28;20075;-76
2022/04/25 04:17:33;;;;;;;6.28;3.15;;;7.90;99.90;;;;;;5109914;28;20043;-76
2022/04/25 04:20:00;;;;;;;10.10;2.78;;;7.80;99.90;;;;;;5114208;28;20020;-76
2022/04/25 04:22:30;;;;;;;4.95;2.63;;;7.80;99.90;;;;;;5114251;28;20028;-73
2022/04/25 04:25:00;;;;;;;5.43;2.63;;;7.80;99.90;;;;;;5116782;28;20106;-74
2022/04/25 04:27:29;;;;;;;5.72;2.78;;;7.70;99.90;;;;;;5117584;28;20482;-75
2022/04/25 04:29:55;;;;;;;3.80;2.03;;;7.80;99.90;;;;;;5112335;28;20016;-74
2022/04/25 04:32:21;;;;;;;6.75;2.65;;;7.80;99.90;;;;;;5097572;28;20027;-74
2022/04/25 04:34:46;;;;;;;12.23;2.78;;;7.80;99.90;;;;;;5114286;28;20053;-73
2022/04/25 04:37:12;;;;;;;3.33;2.20;;;7.80;99.90;;;;;;5119257;28;20050;-73
2022/04/25 04:39:37;;;;;;;5.80;2.42;;;7.70;99.90;;;;;;5114331;28;20152;-75
2022/04/25 04:42:03;;;;;;;5.07;2.45;;;7.80;99.90;;;;;;5099068;28;20027;-74
2022/04/25 04:44:29;;;;;;;4.10;2.33;;;7.70;99.90;;;;;;5090326;28;20167;-75
2022/04/25 04:46:56;;;;;;;8.35;2.55;;;7.70;99.90;;;;;;5106351;28;20028;-75
2022/04/25 04:49:23;;;;;;;6.20;2.60;;;7.70;99.90;;;;;;5103570;28;20020;-73
2022/04/25 04:51:49;;;;;;;6.55;2.13;;;7.70;99.90;;;;;;5088550;28;20032;-74
2022/04/25 04:54:14;;;;;;;7.78;2.40;;;7.70;99.90;;;;;;5105839;28;20442;-71
2022/04/25 04:56:40;;;;;;;5.88;2.40;;;7.70;99.90;;;;;;5094309;28;20059;-77
2022/04/25 04:59:12;;;;;;;8.32;2.67;;;7.70;99.90;;;;;;5086407;28;20028;-72
2022/04/25 05:01:38;;;;;;;6.93;2.15;;;7.70;99.90;;;;;;5067971;28;20036;-72
2022/04/25 05:04:04;;;;;;;8.43;2.80;;;7.70;99.90;;;;;;5090922;28;20079;-73
2022/04/25 05:06:30;;;;;;;5.75;2.45;;;7.70;99.90;;;;;;5106542;28;20035;-74
2022/04/25 05:08:56;;;;;;;7.18;2.05;;;7.60;99.90;;;;;;5105862;28;20038;-73
2022/04/25 05:11:22;;;;;;;11.25;1.55;;;7.70;99.90;;;;;;5106611;28;20035;-74
2022/04/25 05:13:48;;;;;;;4.50;1.98;;;7.70;99.90;;;;;;5106837;28;20031;-73
2022/04/25 05:16:14;;;;;;;4.65;2.20;;;7.70;99.90;;;;;;5087999;28;20044;-74
2022/04/25 05:18:40;;;;;;;5.32;2.00;;;7.70;99.90;;;;;;5103599;28;20465;-76
2022/04/25 05:21:06;;;;;;;3.67;1.85;;;7.70;99.90;;;;;;5110052;28;20052;-73
2022/04/25 05:23:32;;;;;;;4.43;1.90;;;7.80;99.90;;;;;;5105923;28;20024;-74
2022/04/25 05:25:58;;;;;;;4.03;1.85;;;7.80;99.90;;;;;;5106283;28;20719;-73
2022/04/25 05:28:28;;;;;;;5.78;2.28;;;7.80;99.90;;;;;;5102248;28;20034;-73
2022/04/25 05:30:54;;;;;;;5.35;2.25;;;7.80;99.90;;;;;;5118470;28;20058;-75
2022/04/25 05:33:20;;;;;;;9.32;2.72;;;7.80;99.90;;;;;;5107560;28;20047;-74
2022/04/25 05:35:46;;;;;;;4.75;1.80;;;7.80;99.90;;;;;;5108885;28;20039;-74
2022/04/25 05:38:12;;;;;;;8.38;2.38;;;7.90;99.90;;;;;;5122563;28;20035;-75
2022/04/25 05:40:39;;;;;;;6.03;2.42;;;7.90;99.90;;;;;;5126970;28;20019;-74
2022/04/25 05:43:07;;;;;;;3.40;1.52;;;7.80;99.90;;;;;;5126690;28;20020;-74
2022/04/25 05:45:33;;;;;;;5.22;1.67;;;7.80;99.90;;;;;;5108120;28;20084;-74
2022/04/25 05:47:59;;;;;;;5.00;1.75;;;7.80;99.90;;;;;;5126618;28;20023;-73
2022/04/25 05:53:11;;;;;;;5.22;2.13;;;7.80;99.90;;;;;;5126892;28;20034;-73
2022/04/25 05:55:37;;;;;;;4.43;2.40;;;7.80;99.90;;;;;;5123141;28;20020;-75
2022/04/25 05:58:04;;;;;;;4.72;2.22;;;7.80;99.90;;;;;;5104940;28;20078;-73
2022/04/25 06:00:31;;;;;;;7.50;2.20;;;7.90;99.90;;;;;;5106072;28;20097;-73
2022/04/25 06:02:58;;;;;;;8.63;2.00;;;7.80;99.90;;;;;;5102702;28;20020;-75
2022/04/25 06:05:24;;;;;;;2.45;1.88;;;7.80;99.90;;;;;;5102738;28;20028;-73
2022/04/25 06:07:51;;;;;;;5.35;1.90;;;7.80;99.90;;;;;;5089736;28;20027;-73
2022/04/25 06:10:18;;;;;;;18.83;2.88;;;7.90;99.90;;;;;;5105490;28;20035;-74
2022/04/25 06:12:47;;;;;;;5.38;2.35;;;7.90;99.90;;;;;;5104172;28;20032;-73
2022/04/25 06:15:13;;;;;;;4.28;2.13;;;8.00;99.90;;;;;;5104712;28;20050;-72
2022/04/25 06:17:39;;;;;;;2.72;1.70;;;8.00;99.90;;;;;;5105539;28;20505;-74
2022/04/25 06:20:06;;;;;;;12.05;2.38;;;8.00;99.90;;;;;;5084454;28;20024;-73
2022/04/25 06:22:32;;;;;;;9.90;2.63;;;8.00;99.90;;;;;;5087284;28;20118;-74
2022/04/25 06:24:59;;;;;;;3.50;2.67;;;8.00;99.90;;;;;;5103979;28;20480;-74
2022/04/25 06:27:25;;;;;;;4.00;3.05;;;8.10;99.90;;;;;;5117275;28;20042;-75
2022/04/25 06:29:52;;;;;;;5.28;2.38;;;8.10;99.90;;;;;;5124510;28;20032;-74
2022/04/25 06:32:21;;;;;;;4.45;2.47;;;8.10;99.90;;;;;;5124147;28;20020;-74
2022/04/25 06:34:47;;;;;;;6.85;3.10;;;8.10;99.90;;;;;;5123340;28;20537;-73
2022/04/25 06:37:13;;;;;;;8.55;3.92;;;8.10;99.90;;;;;;5117097;28;20069;-74
2022/04/25 06:39:38;;;;;;;8.27;4.05;;;8.20;99.90;;;;;;5100908;28;20028;-74
2022/04/25 06:42:05;;;;;;;7.43;3.47;;;8.20;99.90;;;;;;5097524;28;20032;-73
2022/04/25 06:44:32;;;;;;;5.72;2.78;;;8.30;99.90;;;;;;5096379;28;21715;-75
2022/04/25 06:46:58;;;;;;;7.95;2.92;;;8.30;99.90;;;;;;5076091;28;20020;-73
2022/04/25 06:49:24;;;;;;;6.75;3.25;;;8.30;99.90;;;;;;5114492;28;20034;-75
2022/04/25 06:51:58;;;;;;;4.45;2.90;;;8.40;99.90;;;;;;5122558;28;20391;-72
2022/04/25 06:54:26;;;;;;;11.40;4.13;;;8.40;99.90;;;;;;5103522;28;20426;-74
2022/04/25 06:56:54;;;;;;;6.60;4.20;;;8.40;99.90;;;;;;5101283;28;20055;-74
2022/04/25 06:59:21;;;;;;;10.25;4.10;;;8.40;99.90;;;;;;5106812;28;20119;-73
2022/04/25 07:01:48;;;;;;;5.07;3.47;;;8.50;99.90;;;;;;5102875;28;20031;-73
2022/04/25 07:04:16;;;;;;;10.02;4.80;;;8.50;99.90;;;;;;5104674;28;20480;-75
2022/04/25 07:06:43;;;;;;;10.18;4.45;;;8.60;99.90;;;;;;5086304;28;20024;-74
2022/04/25 07:09:12;;;;;;;7.18;3.90;;;8.60;99.90;;;;;;5104990;28;20028;-74
2022/04/25 07:11:46;;;;;;;9.77;4.10;;;8.60;99.90;;;;;;5097226;28;20024;-74
2022/04/25 07:14:14;;;;;;;6.30;3.67;;;8.70;99.90;;;;;;5125366;28;20027;-74
2022/04/25 07:16:44;;;;;;;7.03;4.05;;;8.70;99.90;;;;;;5115496;28;20048;-72
2022/04/25 07:19:11;;;;;;;9.82;4.78;;;8.80;99.90;;;;;;5105151;28;20020;-73
2022/04/25 07:30:02;;;;;;;9.93;4.68;;;9.10;99.90;;;;;;5102035;28;20066;-73
2022/04/25 07:32:28;;;;;;;7.40;3.63;;;9.10;99.90;;;;;;5099268;28;20059;-74
2022/04/25 07:34:54;;;;;;;9.90;4.82;;;9.10;99.90;;;;;;5103753;28;20031;-76
2022/04/25 07:37:22;;;;;;;7.50;3.78;;;9.10;99.90;;;;;;5102964;28;20048;-74
2022/04/25 07:39:49;;;;;;;11.38;5.28;;;9.10;99.90;;;;;;5098291;28;20028;-74
2022/04/25 07:42:15;;;;;;;14.57;6.00;;;9.10;99.90;;;;;;5104555;28;20024;-74
2022/04/25 07:44:42;;;;;;;9.48;4.88;;;9.10;99.90;;;;;;5102755;28;20072;-74
2022/04/25 07:47:08;;;;;;;15.77;5.68;;;9.10;99.90;;;;;;5101200;28;20070;-75
2022/04/25 07:49:34;;;;;;;9.35;6.18;;;9.10;99.90;;;;;;5103710;28;20073;-73
2022/04/25 07:52:01;;;;;;;9.43;5.80;;;9.20;99.90;;;;;;5104394;28;20507;-75
2022/04/25 07:54:27;;;;;;;13.05;6.22;;;9.20;99.90;;;;;;5086357;28;20031;-74
2022/04/25 07:56:52;;;;;;;13.05;6.28;;;9.30;99.90;;;;;;5118325;28;20083;-74
2022/04/25 07:59:19;;;;;;;17.75;6.45;;;9.40;99.90;;;;;;5122325;28;20379;-74
2022/04/25 08:01:45;;;;;;;15.98;6.00;;;9.50;99.90;;;;;;5089930;28;20466;-75
2022/04/25 08:04:12;;;;;;;11.82;6.07;;;9.60;99.90;;;;;;5106687;28;20024;-74
2022/04/25 08:06:38;;;;;;;14.63;5.50;;;9.60;99.90;;;;;;5107005;28;20028;-74
2022/04/25 08:09:08;;;;;;;16.70;6.38;;;9.70;99.90;;;;;;5101990;28;20111;-74
2022/04/25 08:11:34;;;;;;;8.98;5.15;;;9.80;99.90;;;;;;5103825;28;20075;-73
2022/04/25 08:19:31;;;;;;;10.07;5.20;;;10.10;99.90;;;;;;5103534;28;20043;-75
2022/04/25 08:22:04;;;;;;;21.92;6.22;;;10.30;99.90;;;;;;5097874;28;20032;-75
2022/04/25 08:24:30;;;;;;;13.20;6.28;;;10.60;99.90;;;;;;5091881;28;20035;-74
2022/04/25 08:27:00;;;;;;;12.57;6.32;;;11.00;99.90;;;;;;5089088;28;20039;-74
2022/04/25 08:29:27;;;;;;;10.88;5.55;;;11.30;99.90;;;;;;5109869;28;20028;-73
2022/04/25 08:31:55;;;;;;;11.52;6.07;;;11.50;99.90;;;;;;5107519;28;20078;-73
2022/04/25 08:34:21;;;;;;;12.48;6.32;;;11.70;99.90;;;;;;5088642;28;20032;-75
2022/04/25 08:36:47;;;;;;;8.52;4.90;;;11.90;99.90;;;;;;5087742;28;20099;-74
2022/04/25 08:39:13;;;;;;;11.07;5.70;;;12.00;99.90;;;;;;5089807;28;20518;-74
2022/04/25 08:41:40;;;;;;;8.18;5.13;;;12.10;99.90;;;;;;5106218;28;20031;-74
2022/04/25 08:44:07;;;;;;;10.20;5.25;;;12.20;99.90;;;;;;5107436;28;20016;-75
2022/04/25 08:46:35;;;;;;;14.57;5.85;;;12.30;99.90;;;;;;5106705;28;20082;-75
2022/04/25 08:49:03;;;;;;;9.95;6.05;;;12.60;99.90;;;;;;5105556;28;20024;-74
2022/04/25 08:51:30;;;;;;;13.68;5.50;;;12.90;99.90;;;;;;5106758;28;20024;-74
2022/04/25 08:53:57;;;;;;;10.82;5.38;;;12.90;99.90;;;;;;5107088;28;20032;-75
2022/04/25 08:56:27;;;;;;;10.45;5.07;;;13.10;99.90;;;;;;5087286;28;20055;-74
2022/04/25 08:58:56;;;;;;;7.97;4.85;;;13.20;99.90;;;;;;5107634;28;20450;-75
2022/04/25 09:01:25;;;;;;;9.80;5.22;;;13.20;99.90;;;;;;5105256;28;20020;-74
2022/04/25 09:03:51;;;;;;;10.93;4.93;;;13.40;99.90;;;;;;5105782;28;20020;-73
2022/04/25 09:06:26;;;;;;;9.50;5.05;;;13.40;99.90;;;;;;5105907;28;20073;-75
2022/04/25 09:08:53;;;;;;;8.95;4.63;;;13.40;99.90;;;;;;5106895;28;20145;-74
2022/04/25 09:14:04;;;;;;;;;;;13.50;99.90;;;;;;5105251;28;20035;-76
2022/04/25 09:16:30;;;;;;;10.60;3.75;;;13.60;99.90;;;;;;5087145;28;20368;-73
2022/04/25 09:18:56;;;;;;;13.02;5.32;;;13.50;99.90;;;;;;5096082;28;20080;-74
2022/04/25 09:21:24;;;;;;;7.57;4.70;;;13.60;99.90;;;;;;5099676;28;20020;-73
2022/04/25 09:23:55;;;;;;;9.68;4.95;;;13.70;99.90;;;;;;5103894;28;20095;-73
2022/04/25 09:26:21;;;;;;;9.70;5.13;;;13.80;99.90;;;;;;5107590;28;20031;-74
2022/04/25 09:28:54;;;;;;;9.43;5.43;;;14.10;99.90;;;;;;5118424;28;20031;-73
2022/04/25 09:31:27;;;;;;;13.13;4.72;;;14.10;99.90;;;;;;5123478;28;20098;-73
2022/04/25 09:33:54;;;;;;;13.57;5.22;;;14.20;99.90;;;;;;5126624;28;20042;-76
2022/04/25 09:36:21;;;;;;;8.73;4.38;;;14.40;99.90;;;;;;5100344;28;20104;-73
2022/04/25 09:38:47;;;;;;;7.63;4.10;;;14.40;99.90;;;;;;5097131;28;20020;-74
2022/04/25 09:41:13;;;;;;;13.13;5.15;;;14.40;99.90;;;;;;5106171;28;20077;-73
2022/04/25 09:43:42;;;;;;;11.25;4.93;;;14.40;99.90;;;;;;5105268;28;20032;-73
2022/04/25 09:46:08;;;;;;;13.18;4.82;;;14.50;99.90;;;;;;5104720;28;20030;-73
2022/04/25 09:48:35;;;;;;;12.77;4.68;;;14.60;99.90;;;;;;5113346;28;20024;-73
2022/04/25 09:51:02;;;;;;;8.30;3.38;;;14.80;99.90;;;;;;5105894;28;20024;-72
2022/04/25 09:53:52;;;;;;;11.73;4.35;;;14.70;99.90;;;;;;5087907;28;20036;-73
2022/04/25 09:56:26;;;;;;;9.10;4.25;;;14.80;99.90;;;;;;5104582;28;20048;-73
2022/04/25 09:59:07;;;;;;;6.13;3.63;;;14.90;99.90;;;;;;5100671;28;20868;-71
2022/04/25 10:01:35;;;;;;;6.10;3.70;;;15.00;99.90;;;;;;5087877;28;20032;-74
2022/04/25 10:04:02;;;;;;;6.82;2.88;;;15.10;99.90;;;;;;5087696;28;20032;-75
2022/04/25 10:06:32;;;;;;;8.68;3.05;;;15.30;99.90;;;;;;5105831;28;20032;-74
2022/04/25 10:09:01;;;;;;;4.60;2.85;;;15.40;99.90;;;;;;5106030;28;20020;-74
2022/04/25 10:11:35;;;;;;;8.70;2.90;;;15.50;99.90;;;;;;5105807;28;20503;-72
2022/04/25 10:14:02;;;;;;;;;;;15.60;99.90;;;;;;5106197;28;20055;-75
2022/04/25 10:16:31;;;;;;;6.07;3.05;;;15.80;99.90;;;;;;5087616;28;19916;-73
2022/04/25 10:18:58;;;;;;;6.90;3.28;;;16.00;99.90;;;;;;5102156;28;20024;-74
2022/04/25 10:21:25;;;;;;;5.05;2.45;;;16.10;99.90;;;;;;5105664;28;20083;-73
2022/04/25 10:23:54;;;;;;;9.32;3.85;;;16.20;99.90;;;;;;5105708;28;20059;-74
2022/04/25 10:26:29;;;;;;;9.07;3.60;;;16.40;99.90;;;;;;5083475;28;20020;-73
2022/04/25 10:28:57;;;;;;;4.70;2.67;;;16.40;99.90;;;;;;5085354;28;20030;-76
2022/04/25 10:31:38;;;;;;;5.18;2.80;;;16.40;99.90;;;;;;5098996;28;20054;-77
2022/04/25 10:34:04;;;;;;;6.20;2.95;;;16.40;99.90;;;;;;5108356;28;20036;-73
2022/04/25 10:36:39;;;;;;;8.13;2.92;;;16.60;99.90;;;;;;5117367;28;20091;-74
2022/04/25 10:39:16;;;;;;;6.05;2.58;;;16.50;99.90;;;;;;5083625;28;20029;-73
2022/04/25 10:44:42;;;;;;;8.40;2.50;;;17.00;99.90;;;;;;5102785;28;20506;-74
2022/04/25 10:47:11;;;;;;;8.45;3.20;;;17.30;99.90;;;;;;5092995;28;20032;-73
2022/04/25 10:49:42;;;;;;;5.22;3.03;;;17.60;99.90;;;;;;5084418;28;20084;-73
2022/04/25 10:55:14;;;;;;;8.63;2.25;;;17.80;99.90;;;;;;5087469;28;20032;-73
2022/04/25 10:58:01;;;;;;;8.40;2.50;;;17.90;99.90;;;;;;5091527;28;20036;-74
2022/04/25 11:00:45;;;;;;;4.05;1.63;;;18.10;99.90;;;;;;5101944;28;20024;-75
2022/04/25 11:03:12;;;;;;;4.45;2.15;;;18.20;99.90;;;;;;5084658;28;20481;-74
2022/04/25 11:05:38;;;;;;;2.88;1.60;;;18.40;99.90;;;;;;5098970;28;20035;-74
2022/04/25 11:08:19;;;;;;;16.27;1.52;;;18.60;99.90;;;;;;5104514;28;20051;-75
2022/04/25 11:10:59;;;;;;;5.32;1.90;;;18.70;99.90;;;;;;5101727;28;20857;-73
2022/04/25 11:13:29;;;;;;;5.57;1.95;;;18.90;99.90;;;;;;5101172;28;20028;-75
2022/04/25 11:16:16;;;;;;;3.25;1.80;;;19.20;99.90;;;;;;5103826;28;20044;-75
2022/04/25 11:18:42;;;;;;;1.98;1.48;;;19.40;99.90;;;;;;5083770;28;20051;-75
2022/04/25 11:21:09;;;;;;;2.88;1.55;;;19.60;99.90;;;;;;5081878;28;20028;-73
2022/04/25 11:23:57;;;;;;;4.20;2.10;;;19.70;99.90;;;;;;5104568;28;20073;-75
2022/04/25 11:26:23;;;;;;;4.60;2.10;;;19.80;99.90;;;;;;5104860;28;20124;-77
2022/04/25 11:28:55;;;;;;;5.40;2.15;;;19.80;99.90;;;;;;5105940;28;20081;-73
2022/04/25 11:31:23;;;;;;;3.22;1.90;;;19.70;99.90;;;;;;5100831;28;20023;-72
2022/04/25 11:33:51;;;;;;;3.67;1.92;;;19.70;99.90;;;;;;5102500;28;20032;-73
2022/04/25 11:36:20;;;;;;;4.53;2.15;;;19.50;99.90;;;;;;5085042;28;20499;-74
2022/04/25 11:41:34;;;;;;;3.92;1.98;;;19.60;99.90;;;;;;5088698;28;20035;-73
2022/04/25 11:44:05;;;;;;;6.55;2.25;;;19.60;99.90;;;;;;5088452;28;20028;-74
2022/04/25 11:46:32;;;;;;;5.47;2.08;;;19.80;99.90;;;;;;5097114;28;20036;-74
2022/04/25 11:48:58;;;;;;;2.88;1.70;;;19.80;99.90;;;;;;5108750;28;20061;-73
2022/04/25 11:51:32;;;;;;;6.05;2.00;;;19.60;99.90;;;;;;5105710;28;20028;-72
2022/04/25 11:54:01;;;;;;;8.10;2.17;;;19.40;99.90;;;;;;5090227;28;20517;-73
2022/04/25 11:56:28;;;;;;;3.67;1.83;;;19.30;99.90;;;;;;5106560;28;20059;-73
2022/04/25 11:58:56;;;;;;;2.30;1.65;;;19.10;99.90;;;;;;5106644;28;20066;-75
2022/04/25 12:01:35;;;;;;;1.80;1.25;;;19.00;99.90;;;;;;5088629;28;20027;-73
2022/04/25 12:04:23;;;;;;;3.78;1.95;;;18.90;99.90;;;;;;5102671;28;20093;-74
2022/04/25 12:07:00;;;;;;;4.88;1.70;;;18.80;99.90;;;;;;5088152;28;20035;-74
2022/04/25 12:18:20;;;;;;;4.13;2.28;;;19.00;99.90;;;;;;5107965;28;20049;-74
2022/04/25 12:20:58;;;;;;;4.32;1.95;;;19.00;99.90;;;;;;5108001;28;20032;-74
2022/04/25 12:23:33;;;;;;;5.45;1.92;;;19.00;99.90;;;;;;5108583;28;20028;-75
2022/04/25 12:26:08;;;;;;;2.35;1.58;;;19.00;99.90;;;;;;5106759;28;20039;-75
2022/04/25 12:28:37;;;;;;;5.07;2.00;;;19.10;99.90;;;;;;5078100;28;20030;-73
2022/04/25 12:31:11;;;;;;;3.60;2.20;;;19.60;99.90;;;;;;5080110;28;20039;-72
2022/04/25 12:33:45;;;;;;;3.13;1.73;;;20.20;99.90;;;;;;5105001;28;20494;-74
2022/04/25 12:36:20;;;;;;;4.20;2.13;;;20.50;99.90;;;;;;5107897;28;20130;-75
2022/04/25 12:39:00;;;;;;;3.35;1.85;;;20.90;99.90;;;;;;5106826;28;20034;-73
2022/04/25 12:41:38;;;;;;;3.70;1.90;;;21.10;99.90;;;;;;5105942;28;20057;-72
2022/04/25 12:44:10;;;;;;;3.92;2.08;;;21.00;99.90;;;;;;5107471;28;20555;-73
2022/04/25 12:46:42;;;;;;;2.00;1.50;;;20.90;99.90;;;;;;5107415;28;20468;-73
2022/04/25 12:49:13;;;;;;;7.03;2.20;;;21.00;99.90;;;;;;5107731;28;20028;-76
2022/04/25 12:51:52;;;;;;;5.32;2.28;;;21.50;99.90;;;;;;5107161;28;20097;-74
2022/04/25 12:54:37;;;;;;;6.05;2.35;;;21.60;99.90;;;;;;5107110;28;20089;-74
2022/04/25 12:57:06;;;;;;;3.85;1.98;;;21.70;99.90;;;;;;5088755;28;20063;-75
2022/04/25 12:59:33;;;;;;;3.15;1.73;;;21.90;99.90;;;;;;5088440;28;20028;-74
2022/04/25 13:02:07;;;;;;;3.58;1.90;;;21.80;99.90;;;;;;5107600;28;20084;-74
2022/04/25 13:04:56;;;;;;;5.18;2.30;;;21.50;99.70;;;;;;5089051;28;20099;-73
2022/04/25 13:07:22;;;;;;;2.08;1.38;;;21.20;98.10;;;;;;5106895;28;20484;-74
2022/04/25 13:09:49;;;;;;;5.50;2.08;;;21.00;99.20;;;;;;5089018;28;20100;-74
2022/04/25 13:12:17;;;;;;;5.70;2.38;;;20.80;99.20;;;;;;5106737;28;20020;-74
2022/04/25 13:14:43;;;;;;;2.45;1.80;;;20.60;99.90;;;;;;5107063;28;20112;-74
2022/04/25 13:17:09;;;;;;;3.15;1.83;;;20.80;99.40;;;;;;5107005;28;20034;-73
2022/04/25 13:19:38;;;;;;;10.00;2.50;;;20.80;98.80;;;;;;5106466;28;20044;-74
2022/04/25 13:22:04;;;;;;;5.22;1.83;;;20.60;99.20;;;;;;5103658;28;20016;-74
2022/04/25 13:24:32;;;;;;;3.58;1.73;;;20.40;99.70;;;;;;5106370;28;20028;-75
2022/04/25 13:26:58;;;;;;;5.20;1.83;;;20.20;99.90;;;;;;5113420;28;20093;-75
2022/04/25 13:29:24;;;;;;;15.00;2.22;;;20.10;99.90;;;;;;5092880;28;20471;-75
2022/04/25 13:31:49;;;;;;;5.53;2.25;;;19.90;99.90;;;;;;5107841;28;20031;-76
2022/04/25 13:34:15;;;;;;;4.13;1.75;;;19.60;99.90;;;;;;5084736;28;20044;-75
2022/04/25 13:36:41;;;;;;;5.55;1.92;;;19.30;99.60;;;;;;5089204;28;20040;-74
2022/04/25 13:39:06;;;;;;;2.65;1.92;;;19.10;99.90;;;;;;5092501;28;20024;-75
2022/04/25 13:41:33;;;;;;;3.38;2.05;;;18.80;99.90;;;;;;5098264;28;20157;-74